logo
Search for airport 
image banner adimage banner adimage banner ad
image banner ad

ZYCC - Changchun/Longjia

Located in Changchun, China

ICAO - ZYCC, IATA - CGQ

Data provided by Airmate  

General information

Coordinates: N43°59'54" E125°41'18"
Elevation is 705 feet MSL.
 
View others Airports in Jilin Province

Operational data

Special qualification required
Current time UTC:
Current local time:
Weather
METAR: ZYCC 220900Z 23007MPS CAVOK 23/05 Q1008 NOSIG
TAF: TAF ZYCC 220306Z 2206/2306 20008G13MPS 6000 SCT030 TX23/2206Z TN09/2221Z BECMG 2214/2215 18003MPS TEMPO 2222/2302 2000 -SHRA BR FEW023CB BKN030
View NOTAMs / SUP AIP / TFR affecting this airport [VIEW]
Communications frequencies: [VIEW]

Runways:

RWY identifierQFULength (ft)Width (ft)SurfaceLDA (ft)
0649°10499148CON
24229°10499148CON

Airport contact information

Address: Changchun China

Satellite view of ZYCC